createdAt,value
2022-08-26T00:00:39.366Z,3.17
2022-08-26T00:03:42.318Z,2.92
2022-08-26T00:06:46.309Z,2.80
2022-08-26T00:09:50.110Z,2.80
2022-08-26T00:12:56.960Z,3.05
2022-08-26T00:16:01.038Z,3.08
2022-08-26T00:19:04.991Z,2.50
2022-08-26T00:22:08.212Z,3.03
2022-08-26T00:25:12.091Z,2.83
2022-08-26T00:28:14.999Z,3.40
2022-08-26T00:31:23.175Z,4.05
2022-08-26T00:34:26.473Z,2.80
2022-08-26T00:37:29.126Z,2.53
2022-08-26T00:40:34.766Z,3.05
2022-08-26T00:43:47.133Z,3.00
2022-08-26T00:46:56.002Z,3.28
2022-08-26T00:50:00.666Z,3.40
2022-08-26T00:53:05.895Z,2.75
2022-08-26T00:56:11.250Z,2.88
2022-08-26T00:59:17.635Z,3.13
2022-08-26T01:02:22.787Z,2.92
2022-08-26T01:05:25.668Z,2.72
2022-08-26T01:08:28.653Z,3.03
2022-08-26T01:11:31.838Z,3.45
2022-08-26T01:14:36.731Z,3.17
2022-08-26T01:17:41.018Z,3.60
2022-08-26T01:20:49.007Z,2.78
2022-08-26T01:23:57.753Z,3.30
2022-08-26T01:27:02.525Z,2.85
2022-08-26T01:30:06.645Z,3.00
2022-08-26T01:33:11.871Z,3.08
2022-08-26T01:36:15.130Z,2.80
2022-08-26T01:39:20.056Z,3.53
2022-08-26T01:42:23.602Z,2.95
2022-08-26T01:45:29.377Z,3.40
2022-08-26T01:48:33.535Z,3.25
2022-08-26T01:51:37.882Z,3.28
2022-08-26T01:54:41.919Z,2.80
2022-08-26T01:57:51.435Z,3.25
2022-08-26T02:00:59.413Z,2.88
2022-08-26T02:04:04.243Z,3.10
2022-08-26T02:07:08.920Z,2.85
2022-08-26T02:10:14.335Z,2.78
2022-08-26T02:13:17.097Z,3.65
2022-08-26T02:16:21.119Z,2.80
2022-08-26T02:19:24.958Z,3.17
2022-08-26T02:22:27.712Z,2.95
2022-08-26T02:25:33.234Z,3.05
2022-08-26T02:28:38.219Z,3.35
2022-08-26T02:31:40.907Z,3.60
2022-08-26T02:34:44.416Z,2.90
2022-08-26T02:37:47.459Z,3.22
2022-08-26T02:40:53.550Z,3.95
2022-08-26T02:43:56.610Z,2.97
2022-08-26T02:47:01.176Z,3.10
2022-08-26T02:50:04.060Z,3.78
2022-08-26T02:53:07.192Z,3.63
2022-08-26T02:56:11.508Z,3.38
2022-08-26T02:59:15.377Z,3.38
2022-08-26T03:02:18.168Z,3.15
2022-08-26T03:05:22.083Z,3.42
2022-08-26T03:08:26.721Z,3.25
2022-08-26T03:11:33.161Z,3.08
2022-08-26T03:14:36.199Z,3.22
2022-08-26T03:17:38.867Z,3.38
2022-08-26T03:20:42.417Z,3.03
2022-08-26T03:23:46.803Z,3.45
2022-08-26T03:26:52.520Z,3.55
2022-08-26T03:30:13.072Z,3.47
2022-08-26T03:33:17.594Z,3.28
2022-08-26T03:36:20.214Z,3.67
2022-08-26T03:39:22.934Z,3.97
2022-08-26T03:42:27.002Z,4.15
2022-08-26T03:45:30.275Z,3.30
2022-08-26T03:48:34.022Z,3.28
2022-08-26T03:51:38.661Z,3.88
2022-08-26T03:54:41.898Z,3.22
2022-08-26T03:57:47.895Z,3.38
2022-08-26T04:00:55.416Z,3.38
2022-08-26T04:04:00.022Z,3.40
2022-08-26T04:07:03.369Z,3.85
2022-08-26T04:10:06.695Z,3.63
2022-08-26T04:13:12.175Z,3.58
2022-08-26T04:16:15.201Z,3.67
2022-08-26T04:19:19.838Z,3.60
2022-08-26T04:22:24.177Z,3.53
2022-08-26T04:25:27.723Z,4.25
2022-08-26T04:28:32.492Z,3.92
2022-08-26T04:31:35.623Z,3.55
2022-08-26T04:34:38.763Z,3.80
2022-08-26T04:37:43.868Z,4.03
2022-08-26T04:40:47.294Z,4.38
2022-08-26T04:43:51.461Z,3.70
2022-08-26T04:46:56.482Z,4.03
2022-08-26T04:49:59.958Z,3.97
2022-08-26T04:53:02.638Z,4.40
2022-08-26T04:56:08.547Z,4.78
2022-08-26T04:59:17.073Z,5.07
2022-08-26T05:02:21.748Z,5.10
2022-08-26T05:05:25.390Z,5.28
2022-08-26T05:08:28.020Z,5.35
2022-08-26T05:11:30.743Z,5.45
2022-08-26T05:14:35.273Z,5.53
2022-08-26T05:17:37.990Z,5.32
2022-08-26T05:20:41.553Z,5.45
2022-08-26T05:23:44.271Z,5.43
2022-08-26T05:26:48.342Z,5.32
2022-08-26T05:29:57.068Z,5.90
2022-08-26T05:33:00.280Z,5.25
2022-08-26T05:36:07.484Z,5.55
2022-08-26T05:39:11.882Z,5.35
2022-08-26T05:42:15.382Z,5.32
2022-08-26T05:45:19.747Z,5.65
2022-08-26T05:48:22.805Z,5.47
2022-08-26T05:51:27.315Z,6.70
2022-08-26T05:54:34.738Z,6.07
2022-08-26T05:57:42.149Z,6.00
2022-08-26T06:00:46.848Z,5.88
2022-08-26T06:03:52.387Z,5.55
2022-08-26T06:06:55.077Z,5.80
2022-08-26T06:10:15.377Z,7.15
2022-08-26T06:13:23.696Z,6.50
2022-08-26T06:16:27.914Z,6.07
2022-08-26T06:19:33.084Z,7.25
2022-08-26T06:22:55.103Z,6.78
2022-08-26T06:25:57.749Z,6.43
2022-08-26T06:29:01.698Z,7.13
2022-08-26T06:32:09.549Z,5.72
2022-08-26T06:35:12.841Z,6.00
2022-08-26T06:38:18.324Z,6.18
2022-08-26T06:41:22.971Z,6.35
2022-08-26T06:44:27.089Z,7.25
2022-08-26T06:47:31.617Z,7.00
2022-08-26T06:50:38.633Z,7.55
2022-08-26T06:53:43.144Z,7.18
2022-08-26T06:56:46.193Z,7.28
2022-08-26T06:59:51.346Z,6.80
2022-08-26T07:02:55.978Z,7.05
2022-08-26T07:06:03.299Z,6.93
2022-08-26T07:09:09.988Z,6.57
2022-08-26T07:12:13.315Z,6.40
2022-08-26T07:15:16.661Z,6.28
2022-08-26T07:18:21.809Z,5.97
2022-08-26T07:21:27.061Z,6.38
2022-08-26T07:24:31.411Z,6.30
2022-08-26T07:27:42.190Z,5.75
2022-08-26T07:31:02.774Z,6.15
2022-08-26T07:34:14.630Z,6.25
2022-08-26T07:37:20.627Z,5.50
2022-08-26T07:40:23.925Z,5.95
2022-08-26T07:43:28.669Z,4.68
2022-08-26T07:46:35.588Z,5.55
2022-08-26T07:49:41.576Z,5.88
2022-08-26T07:52:45.776Z,6.13
2022-08-26T07:55:50.216Z,5.95
2022-08-26T07:58:53.990Z,5.10
2022-08-26T08:02:01.488Z,5.75
2022-08-26T08:05:12.434Z,5.15
2022-08-26T08:08:26.960Z,5.18
2022-08-26T08:11:32.353Z,5.10
2022-08-26T08:14:37.178Z,6.07
2022-08-26T08:17:40.384Z,5.72
2022-08-26T08:20:59.111Z,4.88
2022-08-26T08:24:08.214Z,5.22
2022-08-26T08:27:10.979Z,5.03
2022-08-26T08:30:14.776Z,4.85
2022-08-26T08:33:24.081Z,4.85
2022-08-26T08:36:32.171Z,5.28
2022-08-26T08:39:39.121Z,5.13
2022-08-26T08:47:43.540Z,4.45
2022-08-26T08:51:01.603Z,5.28
2022-08-26T08:54:19.625Z,4.43
2022-08-26T08:57:35.385Z,4.80
2022-08-26T09:00:41.008Z,4.70
2022-08-26T09:03:50.261Z,4.38
2022-08-26T09:06:55.669Z,4.50
2022-08-26T09:10:02.074Z,5.00
2022-08-26T09:13:13.815Z,4.28
2022-08-26T09:16:34.054Z,4.55
2022-08-26T09:19:41.307Z,4.30
2022-08-26T09:22:49.994Z,4.82
2022-08-26T09:25:58.290Z,5.00
2022-08-26T09:29:02.469Z,5.63
2022-08-26T09:32:16.216Z,4.80
2022-08-26T09:35:25.248Z,4.70
2022-08-26T09:38:34.313Z,4.00
2022-08-26T09:41:39.202Z,5.32
2022-08-26T09:44:55.804Z,4.80
2022-08-26T09:48:01.475Z,4.35
2022-08-26T09:51:05.669Z,3.80
2022-08-26T09:54:09.274Z,4.07
2022-08-26T09:57:20.245Z,4.63
2022-08-26T10:00:27.481Z,4.85
2022-08-26T10:03:32.771Z,4.55
2022-08-26T10:06:38.211Z,4.90
2022-08-26T10:09:44.461Z,5.05
2022-08-26T10:12:52.460Z,4.32
2022-08-26T10:16:01.014Z,4.45
2022-08-26T10:19:08.698Z,4.82
2022-08-26T10:22:35.947Z,4.78
2022-08-26T10:25:44.047Z,4.80
2022-08-26T10:28:51.145Z,4.75
2022-08-26T10:32:02.567Z,5.05
2022-08-26T10:35:11.849Z,4.43
2022-08-26T10:38:16.973Z,4.25
2022-08-26T10:41:24.201Z,4.63
2022-08-26T10:44:31.230Z,4.13
2022-08-26T10:47:38.261Z,4.85
2022-08-26T10:50:49.368Z,4.57
2022-08-26T10:53:57.977Z,4.93
2022-08-26T10:57:06.646Z,4.90
2022-08-26T11:00:34.486Z,4.45
2022-08-26T11:03:40.271Z,4.63
2022-08-26T11:06:45.971Z,4.57
2022-08-26T11:09:55.559Z,4.68
2022-08-26T11:13:03.758Z,4.25
2022-08-26T11:16:15.057Z,4.35
2022-08-26T11:19:56.783Z,4.65
2022-08-26T11:23:01.683Z,4.38
2022-08-26T11:26:20.397Z,4.38
2022-08-26T11:29:58.292Z,5.22
2022-08-26T11:33:03.598Z,4.78
2022-08-26T11:36:12.518Z,4.35
2022-08-26T11:39:21.108Z,4.93
2022-08-26T11:42:30.397Z,4.68
2022-08-26T11:45:35.085Z,4.32
2022-08-26T11:48:43.077Z,4.05
2022-08-26T11:51:48.287Z,4.45
2022-08-26T11:55:09.357Z,4.65
2022-08-26T11:58:16.371Z,4.10
2022-08-26T12:01:25.424Z,4.13
2022-08-26T12:04:31.235Z,4.30
2022-08-26T12:07:39.824Z,3.72
2022-08-26T12:10:49.684Z,4.05
2022-08-26T12:13:57.568Z,3.60
2022-08-26T12:17:09.776Z,4.22
2022-08-26T12:20:46.526Z,4.72
2022-08-26T12:24:05.818Z,4.88
2022-08-26T12:27:26.308Z,3.80
2022-08-26T12:30:38.265Z,4.07
2022-08-26T12:33:59.270Z,3.78
2022-08-26T12:37:12.048Z,4.05
2022-08-26T12:40:33.334Z,3.63
2022-08-26T12:44:32.232Z,4.28
2022-08-26T13:00:54.130Z,3.70
2022-08-26T13:09:26.260Z,3.83
2022-08-26T13:12:55.981Z,3.25
2022-08-26T13:16:25.340Z,4.47
2022-08-26T13:20:22.562Z,3.72
2022-08-26T13:32:03.079Z,3.30
2022-08-26T13:35:06.247Z,3.95
2022-08-26T13:38:30.908Z,4.03
2022-08-26T13:41:41.199Z,3.85
2022-08-26T13:44:50.693Z,4.43
2022-08-26T13:47:54.121Z,4.10
2022-08-26T13:50:57.580Z,3.15
2022-08-26T13:54:03.400Z,3.47
2022-08-26T13:57:08.210Z,3.50
2022-08-26T14:00:24.298Z,3.58
2022-08-26T14:04:03.981Z,3.97
2022-08-26T14:07:14.588Z,3.85
2022-08-26T14:10:34.554Z,4.30
2022-08-26T14:17:30.717Z,3.70
2022-08-26T14:20:45.915Z,3.58
2022-08-26T14:23:53.090Z,3.63
2022-08-26T14:27:05.421Z,3.40
2022-08-26T14:30:28.095Z,3.65
2022-08-26T14:33:36.316Z,3.45
2022-08-26T14:36:48.871Z,3.45
2022-08-26T14:39:52.595Z,3.60
2022-08-26T14:42:59.737Z,3.00
2022-08-26T14:46:06.879Z,3.30
2022-08-26T14:49:10.812Z,3.83
2022-08-26T14:52:14.012Z,3.45
2022-08-26T14:55:16.034Z,3.53
2022-08-26T14:58:19.101Z,3.35
2022-08-26T15:01:26.266Z,3.80
2022-08-26T15:04:31.820Z,3.38
2022-08-26T15:13:18.702Z,3.53
2022-08-26T15:16:38.120Z,3.72
2022-08-26T15:19:56.553Z,3.25
2022-08-26T15:23:03.321Z,2.88
2022-08-26T15:26:31.489Z,2.72
2022-08-26T15:29:51.068Z,2.78
2022-08-26T15:33:07.125Z,2.28
2022-08-26T15:36:24.199Z,2.00
2022-08-26T15:39:33.703Z,1.17
2022-08-26T15:42:41.711Z,1.50
2022-08-26T15:45:49.068Z,1.10
2022-08-26T15:52:55.993Z,1.92
2022-08-26T15:56:02.682Z,1.90
2022-08-26T15:59:09.902Z,2.20
2022-08-26T16:02:14.480Z,2.42
2022-08-26T16:05:18.506Z,2.85
2022-08-26T16:08:36.569Z,4.07
2022-08-26T16:11:54.580Z,3.97
2022-08-26T16:15:04.365Z,4.45
2022-08-26T16:18:08.054Z,4.65
2022-08-26T16:21:41.099Z,5.10
2022-08-26T16:34:25.839Z,5.00
2022-08-26T16:55:54.472Z,4.65
2022-08-26T16:59:39.582Z,3.83
2022-08-26T17:02:43.661Z,3.58
2022-08-26T17:05:46.434Z,4.00
2022-08-26T17:08:50.366Z,3.85
2022-08-26T17:11:53.007Z,3.50
2022-08-26T17:14:55.736Z,3.60
2022-08-26T17:17:59.754Z,3.28
2022-08-26T17:21:03.163Z,3.08
2022-08-26T17:24:06.601Z,2.85
2022-08-26T17:27:09.491Z,3.83
2022-08-26T17:30:12.720Z,3.85
2022-08-26T17:33:17.105Z,4.05
2022-08-26T17:36:28.098Z,3.78
2022-08-26T17:39:31.130Z,4.18
2022-08-26T17:43:08.011Z,4.22
2022-08-26T17:46:14.500Z,4.00
2022-08-26T17:49:18.580Z,5.18
2022-08-26T17:57:10.830Z,4.97
2022-08-26T18:00:16.027Z,5.20
2022-08-26T18:03:29.526Z,5.38
2022-08-26T18:06:59.741Z,5.28
2022-08-26T18:10:41.821Z,4.80
2022-08-26T18:13:46.935Z,4.78
2022-08-26T18:16:51.039Z,5.68
2022-08-26T18:19:54.394Z,4.97
2022-08-26T18:22:57.227Z,5.32
2022-08-26T18:26:01.241Z,6.68
2022-08-26T18:29:03.927Z,5.70
2022-08-26T18:32:09.875Z,5.00
2022-08-26T18:35:12.748Z,4.82
2022-08-26T18:38:16.318Z,4.80
2022-08-26T18:41:21.437Z,5.50
2022-08-26T18:44:24.334Z,5.25
2022-08-26T18:47:26.920Z,5.45
2022-08-26T18:50:29.650Z,5.75
2022-08-26T18:53:32.340Z,5.47
2022-08-26T18:56:39.070Z,5.72
2022-08-26T18:59:48.581Z,5.55
2022-08-26T19:02:55.704Z,6.47
2022-08-26T19:05:59.271Z,6.13
2022-08-26T19:09:03.115Z,5.32
2022-08-26T19:12:08.952Z,6.35
2022-08-26T19:15:13.125Z,6.35
2022-08-26T19:18:19.545Z,6.07
2022-08-26T19:21:25.785Z,6.38
2022-08-26T19:24:28.880Z,7.00
2022-08-26T19:27:37.222Z,6.80
2022-08-26T19:34:13.425Z,6.15
2022-08-26T19:37:21.108Z,6.07
2022-08-26T19:40:26.943Z,6.10
2022-08-26T19:43:32.155Z,6.07
2022-08-26T19:46:45.451Z,6.10
2022-08-26T19:49:54.698Z,7.05
2022-08-26T19:53:05.967Z,6.35
2022-08-26T19:56:09.150Z,6.53
2022-08-26T19:59:15.037Z,6.78
2022-08-26T20:02:20.408Z,6.28
2022-08-26T20:05:32.366Z,5.97
2022-08-26T20:08:37.443Z,6.28
2022-08-26T20:11:50.416Z,6.60
2022-08-26T20:15:02.866Z,6.53
2022-08-26T20:18:26.002Z,6.72
2022-08-26T20:21:30.288Z,6.57
2022-08-26T20:24:37.385Z,6.28
2022-08-26T20:27:43.670Z,6.88
2022-08-26T20:30:48.412Z,7.40
2022-08-26T20:33:58.722Z,6.85
2022-08-26T20:37:07.821Z,6.88
2022-08-26T20:40:22.634Z,6.97
2022-08-26T20:43:30.736Z,6.18
2022-08-26T20:46:45.877Z,7.63
2022-08-26T20:49:52.508Z,7.05
2022-08-26T20:52:57.416Z,6.55
2022-08-26T20:56:08.691Z,6.70
2022-08-26T20:59:11.928Z,7.15
2022-08-26T21:02:23.772Z,7.22
2022-08-26T21:05:28.259Z,6.30
2022-08-26T21:08:42.512Z,6.53
2022-08-26T21:11:47.992Z,6.72
2022-08-26T21:14:51.791Z,7.13
2022-08-26T21:17:56.214Z,7.10
2022-08-26T21:20:59.099Z,8.15
2022-08-26T21:24:02.421Z,6.95
2022-08-26T21:27:07.013Z,7.22
2022-08-26T21:30:12.526Z,6.32
2022-08-26T21:33:19.931Z,6.38
2022-08-26T21:36:26.541Z,5.75
2022-08-26T21:39:35.645Z,5.93
2022-08-26T21:42:40.618Z,6.00
2022-08-26T21:45:43.433Z,5.78
2022-08-26T21:48:52.008Z,5.07
2022-08-26T21:51:55.222Z,5.15
2022-08-26T21:55:09.436Z,5.68
2022-08-26T21:58:15.178Z,5.57
2022-08-26T22:01:19.746Z,5.70
2022-08-26T22:04:27.838Z,6.00
2022-08-26T22:07:34.863Z,5.25
2022-08-26T22:10:39.803Z,5.38
2022-08-26T22:13:46.675Z,5.60
2022-08-26T22:16:51.270Z,5.93
2022-08-26T22:19:58.595Z,5.07
2022-08-26T22:23:08.627Z,5.70
2022-08-26T22:26:12.324Z,5.35
2022-08-26T22:29:18.253Z,5.70
2022-08-26T22:32:22.884Z,5.78
2022-08-26T22:35:28.971Z,4.93
2022-08-26T22:38:33.922Z,6.32
2022-08-26T22:41:41.212Z,6.07
2022-08-26T22:44:44.188Z,5.35
2022-08-26T22:47:48.708Z,5.50
2022-08-26T22:50:58.233Z,6.10
2022-08-26T22:54:03.841Z,5.90
2022-08-26T22:57:06.919Z,6.55
2022-08-26T23:00:12.367Z,5.90
2022-08-26T23:03:17.401Z,6.50
2022-08-26T23:06:27.748Z,6.68
2022-08-26T23:09:31.545Z,6.63
2022-08-26T23:12:37.069Z,7.03
2022-08-26T23:15:40.390Z,7.28
2022-08-26T23:18:43.108Z,6.78
2022-08-26T23:21:51.240Z,7.25
2022-08-26T23:24:53.979Z,7.43
2022-08-26T23:27:57.485Z,7.82
2022-08-26T23:31:00.159Z,9.40
2022-08-26T23:34:20.292Z,9.48
2022-08-26T23:37:25.136Z,9.68
2022-08-26T23:40:32.108Z,9.55
2022-08-26T23:43:35.259Z,11.18
2022-08-26T23:46:38.544Z,10.80
2022-08-26T23:49:47.935Z,11.05
2022-08-26T23:53:08.632Z,12.40
2022-08-26T23:56:19.577Z,11.80
2022-08-26T23:59:23.024Z,11.50
